Time,TemperatureF,DewpointF,PressureIn,WindDirection,WindDirectionDegrees,WindSpeedMPH,WindSpeedGustMPH,Humidity,HourlyPrecipIn,Conditions,Clouds,dailyrainin,SoftwareType,DateUTC
2013-02-12 00:00:00,34.8,32.4,29.20,ENE,68,0.0,0.0,91,0.00,,,0.00,WUHU216HW,2013-02-12 05:00:00,
2013-02-12 00:05:00,34.8,32.4,29.20,NE,45,0.0,0.0,91,0.00,,,0.00,WUHU216HW,2013-02-12 05:05:00,
2013-02-12 00:10:00,34.8,32.4,29.20,NE,45,0.0,0.0,91,0.00,,,0.00,WUHU216HW,2013-02-12 05:10:00,
2013-02-12 00:15:00,34.8,32.4,29.20,NE,45,0.0,0.0,91,0.00,,,0.00,WUHU216HW,2013-02-12 05:15:00,
2013-02-12 00:20:00,34.8,32.4,29.20,NE,45,0.0,0.0,91,0.00,,,0.00,WUHU216HW,2013-02-12 05:20:00,
2013-02-12 00:25:00,34.8,32.4,29.21,NE,45,0.0,0.0,91,0.00,,,0.00,WUHU216HW,2013-02-12 05:25:00,
2013-02-12 00:31:00,34.8,32.4,29.21,NW,315,0.0,0.0,91,0.00,,,0.00,WUHU216HW,2013-02-12 05:31:00,
2013-02-12 00:36:00,34.7,32.2,29.21,NW,315,0.0,0.0,91,0.00,,,0.00,WUHU216HW,2013-02-12 05:36:00,
2013-02-12 00:41:00,34.7,32.2,29.21,NW,315,0.0,0.0,91,0.00,,,0.00,WUHU216HW,2013-02-12 05:41:00,
2013-02-12 00:46:00,34.7,32.2,29.21,NW,315,0.0,0.0,91,0.00,,,0.00,WUHU216HW,2013-02-12 05:46:00,
2013-02-12 00:51:00,34.7,32.2,29.22,NW,315,0.0,0.0,91,0.00,,,0.00,WUHU216HW,2013-02-12 05:51:00,
2013-02-12 00:56:00,34.7,32.2,29.21,NW,315,0.0,0.0,91,0.00,,,0.00,WUHU216HW,2013-02-12 05:56:00,
2013-02-12 01:01:00,34.7,32.2,29.21,NW,315,0.0,0.0,91,0.00,,,0.00,WUHU216HW,2013-02-12 06:01:00,
2013-02-12 01:06:00,34.7,32.2,29.21,NW,315,0.0,0.0,91,0.00,,,0.00,WUHU216HW,2013-02-12 06:06:00,
2013-02-12 01:11:00,34.7,32.2,29.21,NW,315,0.0,0.0,91,0.00,,,0.00,WUHU216HW,2013-02-12 06:11:00,
2013-02-12 01:16:00,34.5,32.0,29.21,NW,315,0.0,0.0,91,0.00,,,0.00,WUHU216HW,2013-02-12 06:16:00,
2013-02-12 01:21:00,34.5,32.0,29.22,NW,315,0.0,0.0,91,0.00,,,0.00,WUHU216HW,2013-02-12 06:21:00,
2013-02-12 01:26:00,34.3,31.9,29.22,NW,315,0.0,0.0,91,0.00,,,0.00,WUHU216HW,2013-02-12 06:26:00,
2013-02-12 01:31:00,34.3,31.9,29.22,NW,315,0.0,0.0,91,0.00,,,0.00,WUHU216HW,2013-02-12 06:31:00,
2013-02-12 01:36:00,34.3,31.9,29.22,NW,315,0.0,0.0,91,0.00,,,0.00,WUHU216HW,2013-02-12 06:36:00,
2013-02-12 01:41:00,34.3,31.9,29.22,NW,315,0.0,0.0,91,0.00,,,0.00,WUHU216HW,2013-02-12 06:41:00,
2013-02-12 01:46:00,34.3,31.9,29.22,NW,315,0.0,0.0,91,0.00,,,0.00,WUHU216HW,2013-02-12 06:46:00,
2013-02-12 01:52:00,34.1,31.7,29.22,NW,315,0.0,0.0,91,0.00,,,0.00,WUHU216HW,2013-02-12 06:52:00,
2013-02-12 01:57:00,34.1,31.9,29.23,NW,315,0.0,0.0,91,0.00,,,0.00,WUHU216HW,2013-02-12 06:57:00,
2013-02-12 02:02:00,34.3,31.9,29.23,NW,315,0.0,0.0,91,0.00,,,0.00,WUHU216HW,2013-02-12 07:02:00,
2013-02-12 02:07:00,34.3,31.9,29.23,NW,315,0.0,0.0,91,0.00,,,0.00,WUHU216HW,2013-02-12 07:07:00,
2013-02-12 02:12:00,34.3,31.9,29.23,NW,315,0.0,0.0,91,0.00,,,0.00,WUHU216HW,2013-02-12 07:12:00,
2013-02-12 02:17:00,34.3,31.9,29.23,NW,315,0.0,0.0,91,0.00,,,0.00,WUHU216HW,2013-02-12 07:17:00,
2013-02-12 02:22:00,34.1,31.7,29.23,NW,315,0.0,0.0,91,0.00,,,0.00,WUHU216HW,2013-02-12 07:22:00,
2013-02-12 02:27:00,34.1,31.7,29.23,NW,315,0.0,0.0,91,0.00,,,0.00,WUHU216HW,2013-02-12 07:27:00,
2013-02-12 02:32:00,33.9,31.5,29.23,NW,315,0.0,0.0,91,0.00,,,0.00,WUHU216HW,2013-02-12 07:32:00,
2013-02-12 02:37:00,33.9,31.5,29.23,NW,315,0.0,0.0,91,0.00,,,0.00,WUHU216HW,2013-02-12 07:37:00,
2013-02-12 02:43:00,33.9,31.5,29.23,NE,45,0.0,0.0,91,0.00,,,0.00,WUHU216HW,2013-02-12 07:43:00,
2013-02-12 02:48:00,33.8,31.3,29.23,NE,45,0.0,0.0,91,0.00,,,0.00,WUHU216HW,2013-02-12 07:48:00,
2013-02-12 02:53:00,33.8,31.3,29.23,NE,45,0.0,0.0,91,0.00,,,0.00,WUHU216HW,2013-02-12 07:53:00,
2013-02-12 02:58:00,33.8,31.3,29.23,NE,45,0.0,0.0,91,0.00,,,0.00,WUHU216HW,2013-02-12 07:58:00,
2013-02-12 03:03:00,33.8,31.3,29.23,NE,45,0.0,0.0,91,0.00,,,0.00,WUHU216HW,2013-02-12 08:03:00,
2013-02-12 03:08:00,33.8,31.3,29.23,NE,45,0.0,0.0,91,0.00,,,0.00,WUHU216HW,2013-02-12 08:08:00,
2013-02-12 03:13:00,33.6,31.1,29.23,NE,45,0.0,0.0,91,0.00,,,0.00,WUHU216HW,2013-02-12 08:13:00,
2013-02-12 03:18:00,33.6,31.1,29.23,NE,45,0.0,0.0,91,0.00,,,0.00,WUHU216HW,2013-02-12 08:18:00,
2013-02-12 03:23:00,33.6,31.1,29.23,NE,45,0.0,0.0,91,0.00,,,0.00,WUHU216HW,2013-02-12 08:23:00,
2013-02-12 03:28:00,33.6,31.1,29.23,NE,45,0.0,0.0,91,0.00,,,0.00,WUHU216HW,2013-02-12 08:28:00,
2013-02-12 03:33:00,33.6,31.1,29.23,NE,45,0.0,0.0,91,0.00,,,0.00,WUHU216HW,2013-02-12 08:33:00,
2013-02-12 03:38:00,33.6,31.1,29.23,NE,45,0.0,0.0,91,0.00,,,0.00,WUHU216HW,2013-02-12 08:38:00,
2013-02-12 03:43:00,33.6,31.1,29.23,NE,45,0.0,0.0,91,0.00,,,0.00,WUHU216HW,2013-02-12 08:43:00,
2013-02-12 03:48:00,33.6,31.1,29.23,NE,45,0.0,0.0,91,0.00,,,0.00,WUHU216HW,2013-02-12 08:48:00,
2013-02-12 03:53:00,33.6,31.1,29.23,NE,45,0.0,0.0,91,0.00,,,0.00,WUHU216HW,2013-02-12 08:53:00,
2013-02-12 03:58:00,33.8,31.3,29.23,NE,45,0.0,0.0,91,0.00,,,0.00,WUHU216HW,2013-02-12 08:58:00,
2013-02-12 04:04:00,33.8,31.3,29.23,NE,45,0.0,0.0,91,0.00,,,0.00,WUHU216HW,2013-02-12 09:04:00,
2013-02-12 04:09:00,33.9,31.5,29.23,NE,45,0.0,0.0,91,0.00,,,0.00,WUHU216HW,2013-02-12 09:09:00,
2013-02-12 04:14:00,34.1,31.7,29.23,NE,45,0.0,0.0,91,0.00,,,0.00,WUHU216HW,2013-02-12 09:14:00,
2013-02-12 04:19:00,34.1,31.7,29.23,NE,45,0.0,0.0,91,0.00,,,0.00,WUHU216HW,2013-02-12 09:19:00,
2013-02-12 04:24:00,34.1,31.7,29.23,NE,45,0.0,0.0,91,0.00,,,0.00,WUHU216HW,2013-02-12 09:24:00,
2013-02-12 04:29:00,34.3,31.9,29.23,NE,45,0.0,0.0,91,0.00,,,0.00,WUHU216HW,2013-02-12 09:29:00,
2013-02-12 04:34:00,34.3,31.9,29.23,ENE,68,0.0,0.0,91,0.00,,,0.00,WUHU216HW,2013-02-12 09:34:00,
2013-02-12 04:39:00,34.3,31.9,29.24,NNE,23,0.0,0.0,91,0.00,,,0.00,WUHU216HW,2013-02-12 09:39:00,
2013-02-12 04:44:00,34.3,31.9,29.24,NE,45,0.0,0.0,91,0.00,,,0.00,WUHU216HW,2013-02-12 09:44:00,
2013-02-12 04:49:00,34.3,31.9,29.23,NE,45,0.0,0.0,91,0.00,,,0.00,WUHU216HW,2013-02-12 09:49:00,
2013-02-12 04:54:00,34.3,31.9,29.24,ENE,68,0.0,0.0,91,0.00,,,0.00,WUHU216HW,2013-02-12 09:54:00,
2013-02-12 04:59:00,34.5,32.0,29.25,SE,135,0.0,0.0,91,0.00,,,0.00,WUHU216HW,2013-02-12 09:59:00,
2013-02-12 05:04:00,34.7,32.2,29.25,NE,45,0.0,0.0,91,0.00,,,0.00,WUHU216HW,2013-02-12 10:04:00,
2013-02-12 05:09:00,34.7,32.2,29.25,NE,45,0.0,0.0,91,0.00,,,0.00,WUHU216HW,2013-02-12 10:09:00,
2013-02-12 05:14:00,34.8,32.4,29.25,ENE,68,0.0,0.0,91,0.00,,,0.00,WUHU216HW,2013-02-12 10:14:00,
2013-02-12 05:24:00,34.8,32.4,29.26,ENE,68,0.0,0.0,91,0.00,,,0.00,WUHU216HW,2013-02-12 10:24:00,
2013-02-12 05:29:00,35.0,32.4,29.25,NE,45,0.0,0.0,91,0.00,,,0.00,WUHU216HW,2013-02-12 10:29:00,
2013-02-12 05:34:00,35.2,32.8,29.25,NE,45,0.0,0.0,91,0.00,,,0.00,WUHU216HW,2013-02-12 10:34:00,
2013-02-12 05:39:00,35.2,32.8,29.25,NE,45,0.0,0.0,91,0.00,,,0.00,WUHU216HW,2013-02-12 10:39:00,
2013-02-12 05:44:00,35.2,32.8,29.25,NE,45,0.0,0.0,91,0.00,,,0.00,WUHU216HW,2013-02-12 10:44:00,
2013-02-12 05:49:00,35.2,32.8,29.25,NE,45,0.0,0.0,91,0.00,,,0.00,WUHU216HW,2013-02-12 10:49:00,
2013-02-12 05:54:00,35.4,32.9,29.25,NNE,23,0.0,0.0,91,0.00,,,0.00,WUHU216HW,2013-02-12 10:54:00,
2013-02-12 05:59:00,35.4,32.9,29.25,NE,45,0.0,0.0,91,0.00,,,0.00,WUHU216HW,2013-02-12 10:59:00,
2013-02-12 06:04:00,35.4,32.7,29.25,ENE,68,0.0,0.0,90,0.00,,,0.00,WUHU216HW,2013-02-12 11:04:00,
2013-02-12 06:10:00,35.4,32.7,29.25,NE,45,0.0,0.0,90,0.00,,,0.00,WUHU216HW,2013-02-12 11:10:00,
2013-02-12 06:15:00,35.4,32.7,29.25,ENE,68,0.0,0.0,90,0.00,,,0.00,WUHU216HW,2013-02-12 11:15:00,
2013-02-12 06:24:00,35.4,32.7,29.25,ENE,68,0.0,0.0,90,0.00,,,0.00,WUHU216HW,2013-02-12 11:24:00,
2013-02-12 06:29:00,35.7,32.7,29.26,East,90,0.0,0.0,89,0.00,,,0.00,WUHU216HW,2013-02-12 11:29:00,
2013-02-12 06:34:00,35.7,32.5,29.26,ENE,68,0.0,0.0,88,0.00,,,0.00,WUHU216HW,2013-02-12 11:34:00,
2013-02-12 06:39:00,35.7,32.5,29.26,NE,45,0.0,0.0,88,0.00,,,0.00,WUHU216HW,2013-02-12 11:39:00,
2013-02-12 06:44:00,35.7,32.5,29.26,ENE,68,0.0,0.0,88,0.00,,,0.00,WUHU216HW,2013-02-12 11:44:00,
2013-02-12 06:49:00,35.7,32.5,29.26,ENE,68,0.0,0.0,88,0.00,,,0.00,WUHU216HW,2013-02-12 11:49:00,
2013-02-12 06:54:00,35.7,32.2,29.26,NE,45,0.0,0.0,87,0.00,,,0.00,WUHU216HW,2013-02-12 11:54:00,
2013-02-12 06:59:00,35.7,32.3,29.26,ENE,68,0.0,0.0,87,0.00,,,0.00,WUHU216HW,2013-02-12 11:59:00,
2013-02-12 07:04:00,35.9,32.1,29.26,NE,45,0.0,0.0,86,0.00,,,0.00,WUHU216HW,2013-02-12 12:04:00,
2013-02-12 07:09:00,35.9,32.1,29.27,ENE,68,0.0,0.0,86,0.00,,,0.00,WUHU216HW,2013-02-12 12:09:00,
2013-02-12 07:14:00,35.9,32.1,29.27,ENE,68,0.0,0.0,86,0.00,,,0.00,WUHU216HW,2013-02-12 12:14:00,
2013-02-12 07:19:00,35.9,32.1,29.28,ENE,68,0.0,0.0,86,0.00,,,0.00,WUHU216HW,2013-02-12 12:19:00,
2013-02-12 07:24:00,35.9,31.8,29.28,ENE,68,0.0,0.0,85,0.00,,,0.00,WUHU216HW,2013-02-12 12:24:00,
2013-02-12 07:29:00,36.1,32.0,29.28,NNE,23,0.0,0.0,85,0.00,,,0.00,WUHU216HW,2013-02-12 12:29:00,
2013-02-12 07:34:00,36.3,32.1,29.28,NE,45,0.0,0.0,85,0.00,,,0.00,WUHU216HW,2013-02-12 12:34:00,
2013-02-12 07:39:00,36.3,32.1,29.28,ENE,68,0.0,0.0,85,0.00,,,0.00,WUHU216HW,2013-02-12 12:39:00,
2013-02-12 07:44:00,36.3,31.8,29.28,ENE,68,0.0,0.0,84,0.00,,,0.00,WUHU216HW,2013-02-12 12:44:00,
2013-02-12 07:49:00,36.3,31.8,29.28,NNE,23,0.0,0.0,84,0.00,,,0.00,WUHU216HW,2013-02-12 12:49:00,
2013-02-12 07:54:00,36.5,32.0,29.29,ENE,68,0.0,0.0,84,0.00,,,0.00,WUHU216HW,2013-02-12 12:54:00,
2013-02-12 08:00:00,36.3,31.8,29.29,NNE,23,0.0,0.0,84,0.00,,,0.00,WUHU216HW,2013-02-12 13:00:00,
2013-02-12 08:05:00,36.5,32.0,29.29,ESE,113,0.0,0.0,84,0.00,,,0.00,WUHU216HW,2013-02-12 13:05:00,
2013-02-12 08:10:00,36.6,32.2,29.29,NE,45,0.0,0.0,84,0.00,,,0.00,WUHU216HW,2013-02-12 13:10:00,
2013-02-12 08:15:00,36.6,31.9,29.29,ENE,68,0.0,0.0,83,0.00,,,0.00,WUHU216HW,2013-02-12 13:15:00,
2013-02-12 08:20:00,36.6,31.9,29.30,NE,45,0.0,0.0,83,0.00,,,0.00,WUHU216HW,2013-02-12 13:20:00,
2013-02-12 08:25:00,36.8,31.8,29.30,East,90,0.0,0.0,82,0.00,,,0.00,WUHU216HW,2013-02-12 13:25:00,
2013-02-12 08:30:00,36.8,31.8,29.30,ENE,68,0.0,0.0,82,0.00,,,0.00,WUHU216HW,2013-02-12 13:30:00,
2013-02-12 08:35:00,37.0,32.0,29.30,NE,45,0.0,0.0,82,0.00,,,0.00,WUHU216HW,2013-02-12 13:35:00,
2013-02-12 08:40:00,37.0,31.7,29.30,NNE,23,0.0,0.0,81,0.00,,,0.00,WUHU216HW,2013-02-12 13:40:00,
2013-02-12 08:45:00,37.2,31.9,29.31,ENE,68,0.0,0.0,81,0.00,,,0.00,WUHU216HW,2013-02-12 13:45:00,
2013-02-12 08:50:00,37.2,31.9,29.31,ENE,68,0.0,0.0,81,0.00,,,0.00,WUHU216HW,2013-02-12 13:50:00,
2013-02-12 08:55:00,37.2,31.9,29.31,ENE,68,0.0,0.0,81,0.00,,,0.00,WUHU216HW,2013-02-12 13:55:00,
2013-02-12 09:00:00,37.4,32.1,29.31,NE,45,0.0,0.0,81,0.00,,,0.00,WUHU216HW,2013-02-12 14:00:00,
2013-02-12 09:05:00,37.4,31.8,29.31,ENE,68,0.0,0.0,80,0.00,,,0.00,WUHU216HW,2013-02-12 14:05:00,
2013-02-12 09:11:00,37.5,32.0,29.31,ENE,68,0.0,0.0,80,0.00,,,0.00,WUHU216HW,2013-02-12 14:11:00,
2013-02-12 09:16:00,37.5,32.0,29.31,NE,45,0.0,0.0,80,0.00,,,0.00,WUHU216HW,2013-02-12 14:16:00,
2013-02-12 09:21:00,37.7,31.8,29.31,ENE,68,0.0,0.0,79,0.00,,,0.00,WUHU216HW,2013-02-12 14:21:00,
2013-02-12 09:26:00,37.7,31.8,29.31,East,90,0.0,0.0,79,0.00,,,0.00,WUHU216HW,2013-02-12 14:26:00,
2013-02-12 09:31:00,37.9,32.0,29.31,ENE,68,0.0,0.0,79,0.00,,,0.00,WUHU216HW,2013-02-12 14:31:00,
2013-02-12 09:36:00,38.1,32.1,29.32,ENE,68,0.0,0.0,79,0.00,,,0.00,WUHU216HW,2013-02-12 14:36:00,
2013-02-12 09:41:00,38.3,32.0,29.31,NE,45,0.0,0.0,78,0.00,,,0.00,WUHU216HW,2013-02-12 14:41:00,
2013-02-12 09:46:00,38.4,32.2,29.31,ENE,68,0.0,0.0,78,0.00,,,0.00,WUHU216HW,2013-02-12 14:46:00,
2013-02-12 09:51:00,38.4,31.8,29.32,ENE,68,0.0,0.0,77,0.00,,,0.00,WUHU216HW,2013-02-12 14:51:00,
2013-02-12 09:56:00,38.8,32.2,29.32,NE,45,0.0,0.0,77,0.00,,,0.00,WUHU216HW,2013-02-12 14:56:00,
2013-02-12 10:01:00,38.8,32.2,29.33,ESE,113,0.0,0.0,77,0.00,,,0.00,WUHU216HW,2013-02-12 15:01:00,
2013-02-12 10:06:00,38.8,31.8,29.33,NE,45,0.0,0.0,76,0.00,,,0.00,WUHU216HW,2013-02-12 15:06:00,
2013-02-12 10:12:00,38.8,31.8,29.33,NNE,23,0.0,0.0,76,0.00,,,0.00,WUHU216HW,2013-02-12 15:12:00,
2013-02-12 10:17:00,38.8,31.8,29.33,East,90,0.0,0.0,76,0.00,,,0.00,WUHU216HW,2013-02-12 15:17:00,
2013-02-12 10:22:00,38.8,31.8,29.34,ENE,68,0.0,0.0,76,0.00,,,0.00,WUHU216HW,2013-02-12 15:22:00,
2013-02-12 10:27:00,38.8,31.8,29.34,ENE,68,0.0,0.0,76,0.00,,,0.00,WUHU216HW,2013-02-12 15:27:00,
2013-02-12 10:32:00,38.8,31.8,29.34,NE,45,0.0,0.0,76,0.00,,,0.00,WUHU216HW,2013-02-12 15:32:00,
2013-02-12 10:37:00,38.8,31.5,29.34,ENE,68,0.0,0.0,75,0.00,,,0.00,WUHU216HW,2013-02-12 15:37:00,
2013-02-12 10:42:00,39.0,31.7,29.34,ESE,113,0.0,0.0,75,0.00,,,0.00,WUHU216HW,2013-02-12 15:42:00,
2013-02-12 10:47:00,39.0,31.7,29.34,ENE,68,0.0,0.0,75,0.00,,,0.00,WUHU216HW,2013-02-12 15:47:00,
2013-02-12 10:52:00,39.0,31.3,29.35,ENE,68,0.0,0.0,74,0.00,,,0.00,WUHU216HW,2013-02-12 15:52:00,
2013-02-12 10:57:00,39.3,31.7,29.34,NNE,23,0.0,0.0,74,0.00,,,0.00,WUHU216HW,2013-02-12 15:57:00,
2013-02-12 11:02:00,39.3,31.3,29.35,ENE,68,0.0,0.0,73,0.00,,,0.00,WUHU216HW,2013-02-12 16:02:00,
2013-02-12 11:07:00,39.5,31.5,29.35,ESE,113,0.0,0.0,73,0.00,,,0.00,WUHU216HW,2013-02-12 16:07:00,
2013-02-12 11:13:00,39.5,31.5,29.35,East,90,0.0,0.0,73,0.00,,,0.00,WUHU216HW,2013-02-12 16:13:00,
2013-02-12 11:18:00,39.7,31.4,29.35,SSE,158,0.0,0.0,72,0.00,,,0.00,WUHU216HW,2013-02-12 16:18:00,
2013-02-12 11:23:00,39.7,31.4,29.35,SSE,158,0.0,0.0,72,0.00,,,0.00,WUHU216HW,2013-02-12 16:23:00,
2013-02-12 11:28:00,39.9,31.5,29.35,ESE,113,0.0,0.0,72,0.00,,,0.00,WUHU216HW,2013-02-12 16:28:00,
2013-02-12 11:33:00,39.9,31.5,29.35,NE,45,0.0,0.0,72,0.00,,,0.00,WUHU216HW,2013-02-12 16:33:00,
2013-02-12 11:38:00,40.1,31.4,29.35,NNE,23,0.0,0.0,71,0.00,,,0.00,WUHU216HW,2013-02-12 16:38:00,
2013-02-12 11:43:00,40.1,31.4,29.35,ESE,113,0.0,0.0,71,0.00,,,0.00,WUHU216HW,2013-02-12 16:43:00,
2013-02-12 11:48:00,40.4,31.7,29.35,ENE,68,0.0,0.0,71,0.00,,,0.00,WUHU216HW,2013-02-12 16:48:00,
2013-02-12 11:53:00,40.8,31.8,29.35,SE,135,0.0,0.0,70,0.00,,,0.00,WUHU216HW,2013-02-12 16:53:00,
2013-02-12 11:58:00,40.8,31.8,29.35,East,90,0.0,0.0,70,0.00,,,0.00,WUHU216HW,2013-02-12 16:58:00,
2013-02-12 12:03:00,41.0,32.0,29.35,ESE,113,0.0,0.0,70,0.00,,,0.00,WUHU216HW,2013-02-12 17:03:00,
2013-02-12 12:08:00,41.0,31.6,29.35,ENE,68,0.0,0.0,69,0.00,,,0.00,WUHU216HW,2013-02-12 17:08:00,
2013-02-12 12:13:00,40.8,31.4,29.35,ENE,68,0.0,0.0,69,0.00,,,0.00,WUHU216HW,2013-02-12 17:13:00,
2013-02-12 12:19:00,40.8,31.4,29.35,ESE,113,0.0,0.0,69,0.00,,,0.00,WUHU216HW,2013-02-12 17:19:00,
2013-02-12 12:24:00,40.8,31.4,29.35,ENE,68,0.0,0.0,69,0.00,,,0.00,WUHU216HW,2013-02-12 17:24:00,
2013-02-12 12:29:00,40.8,31.4,29.35,NE,45,0.0,0.0,69,0.00,,,0.00,WUHU216HW,2013-02-12 17:29:00,
2013-02-12 12:34:00,40.8,31.4,29.35,ENE,68,0.0,0.0,69,0.00,,,0.00,WUHU216HW,2013-02-12 17:34:00,
2013-02-12 12:39:00,40.8,31.4,29.35,NE,45,0.0,0.0,69,0.00,,,0.00,WUHU216HW,2013-02-12 17:39:00,
2013-02-12 12:44:00,41.0,31.6,29.35,ENE,68,0.0,0.0,69,0.00,,,0.00,WUHU216HW,2013-02-12 17:44:00,
2013-02-12 12:49:00,41.1,31.7,29.35,ESE,113,0.0,0.0,69,0.00,,,0.00,WUHU216HW,2013-02-12 17:49:00,
2013-02-12 12:54:00,41.3,31.5,29.35,South,180,0.0,0.0,68,0.00,,,0.00,WUHU216HW,2013-02-12 17:54:00,
2013-02-12 12:59:00,41.1,31.4,29.36,NE,45,0.0,0.0,68,0.00,,,0.00,WUHU216HW,2013-02-12 17:59:00,
2013-02-12 13:04:00,41.1,31.4,29.36,NE,45,0.0,0.0,68,0.00,,,0.00,WUHU216HW,2013-02-12 18:04:00,
2013-02-12 13:09:00,40.8,31.0,29.36,ENE,68,0.0,0.0,68,0.00,,,0.00,WUHU216HW,2013-02-12 18:09:00,
2013-02-12 13:14:00,40.8,31.0,29.36,SE,135,0.0,0.0,68,0.00,,,0.00,WUHU216HW,2013-02-12 18:14:00,
2013-02-12 13:19:00,40.8,31.0,29.36,East,90,0.0,0.0,68,0.00,,,0.00,WUHU216HW,2013-02-12 18:19:00,
2013-02-12 13:24:00,40.6,30.8,29.36,ENE,68,0.0,0.0,68,0.00,,,0.00,WUHU216HW,2013-02-12 18:24:00,
2013-02-12 13:29:00,40.6,30.8,29.36,ENE,68,0.0,0.0,68,0.00,,,0.00,WUHU216HW,2013-02-12 18:29:00,
2013-02-12 13:34:00,40.4,30.7,29.36,ENE,68,0.0,0.0,68,0.00,,,0.00,WUHU216HW,2013-02-12 18:34:00,
2013-02-12 13:39:00,40.2,30.1,29.36,ENE,68,0.0,0.0,67,0.00,,,0.00,WUHU216HW,2013-02-12 18:39:00,
2013-02-12 13:45:00,40.1,29.9,29.36,ENE,68,0.0,0.0,67,0.00,,,0.00,WUHU216HW,2013-02-12 18:45:00,
2013-02-12 13:50:00,40.1,30.3,29.36,NE,45,0.0,0.0,68,0.00,,,0.00,WUHU216HW,2013-02-12 18:50:00,
2013-02-12 13:55:00,40.1,30.3,29.37,ENE,68,0.0,0.0,68,0.00,,,0.00,WUHU216HW,2013-02-12 18:55:00,
2013-02-12 14:00:00,40.1,29.9,29.38,East,90,0.0,0.0,67,0.00,,,0.00,WUHU216HW,2013-02-12 19:00:00,
2013-02-12 14:05:00,39.9,29.7,29.38,NE,45,5.3,5.3,67,0.00,,,0.00,WUHU216HW,2013-02-12 19:05:00,
2013-02-12 14:10:00,39.9,29.7,29.37,ENE,68,0.0,5.3,67,0.00,,,0.00,WUHU216HW,2013-02-12 19:10:00,
2013-02-12 14:15:00,39.9,29.7,29.38,SE,135,4.6,4.6,67,0.00,,,0.00,WUHU216HW,2013-02-12 19:15:00,
2013-02-12 14:20:00,39.7,29.6,29.38,East,90,0.0,4.6,67,0.00,,,0.00,WUHU216HW,2013-02-12 19:20:00,
2013-02-12 14:25:00,39.5,29.4,29.38,SE,135,0.0,0.0,67,0.00,,,0.00,WUHU216HW,2013-02-12 19:25:00,
2013-02-12 14:31:00,39.3,29.2,29.38,ENE,68,0.0,0.0,67,0.00,,,0.00,WUHU216HW,2013-02-12 19:31:00,
2013-02-12 14:36:00,39.3,29.2,29.37,NE,45,0.0,0.0,67,0.00,,,0.00,WUHU216HW,2013-02-12 19:36:00,
2013-02-12 14:41:00,39.3,29.6,29.37,ESE,113,0.0,0.0,68,0.00,,,0.00,WUHU216HW,2013-02-12 19:41:00,
2013-02-12 14:46:00,39.3,29.6,29.37,ESE,113,0.0,0.0,68,0.00,,,0.00,WUHU216HW,2013-02-12 19:46:00,
2013-02-12 14:51:00,39.3,29.6,29.37,ESE,113,0.0,0.0,68,0.00,,,0.00,WUHU216HW,2013-02-12 19:51:00,
2013-02-12 14:56:00,39.3,29.2,29.36,ESE,113,0.0,0.0,67,0.00,,,0.00,WUHU216HW,2013-02-12 19:56:00,
2013-02-12 15:01:00,39.5,29.4,29.37,ENE,68,0.0,0.0,67,0.00,,,0.00,WUHU216HW,2013-02-12 20:01:00,
2013-02-12 15:06:00,39.7,29.6,29.36,ESE,113,0.0,0.0,67,0.00,,,0.00,WUHU216HW,2013-02-12 20:06:00,
2013-02-12 15:11:00,39.7,29.6,29.37,NE,45,0.0,0.0,67,0.00,,,0.00,WUHU216HW,2013-02-12 20:11:00,
2013-02-12 15:16:00,39.9,29.7,29.36,East,90,0.0,0.0,67,0.00,,,0.00,WUHU216HW,2013-02-12 20:16:00,
2013-02-12 15:21:00,39.9,29.7,29.36,ENE,68,0.0,0.0,67,0.00,,,0.00,WUHU216HW,2013-02-12 20:21:00,
2013-02-12 15:26:00,39.7,29.6,29.36,East,90,0.0,0.0,67,0.00,,,0.00,WUHU216HW,2013-02-12 20:26:00,
2013-02-12 15:31:00,39.7,29.6,29.36,East,90,0.0,0.0,67,0.00,,,0.00,WUHU216HW,2013-02-12 20:31:00,
2013-02-12 15:37:00,39.7,29.6,29.36,East,90,0.0,0.0,67,0.00,,,0.00,WUHU216HW,2013-02-12 20:37:00,
2013-02-12 15:42:00,39.7,29.6,29.36,ESE,113,0.0,0.0,67,0.00,,,0.00,WUHU216HW,2013-02-12 20:42:00,
2013-02-12 15:47:00,39.5,29.4,29.35,ESE,113,0.0,0.0,67,0.00,,,0.00,WUHU216HW,2013-02-12 20:47:00,
2013-02-12 15:52:00,39.5,29.4,29.36,ESE,113,0.0,0.0,67,0.00,,,0.00,WUHU216HW,2013-02-12 20:52:00,
2013-02-12 15:57:00,39.3,29.2,29.36,SSW,203,0.0,0.0,67,0.00,,,0.00,WUHU216HW,2013-02-12 20:57:00,
2013-02-12 16:02:00,39.3,29.2,29.36,SSE,158,0.0,0.0,67,0.00,,,0.00,WUHU216HW,2013-02-12 21:02:00,
2013-02-12 16:07:00,39.3,29.2,29.36,ENE,68,0.0,0.0,67,0.00,,,0.00,WUHU216HW,2013-02-12 21:07:00,
2013-02-12 16:12:00,39.0,28.9,29.36,NE,45,0.0,0.0,67,0.00,,,0.00,WUHU216HW,2013-02-12 21:12:00,
2013-02-12 16:17:00,39.0,28.9,29.36,ESE,113,0.0,0.0,67,0.00,,,0.00,WUHU216HW,2013-02-12 21:17:00,
2013-02-12 16:22:00,39.0,28.9,29.36,NE,45,0.0,0.0,67,0.00,,,0.00,WUHU216HW,2013-02-12 21:22:00,
2013-02-12 16:27:00,38.8,28.7,29.36,ENE,68,0.0,0.0,67,0.00,,,0.00,WUHU216HW,2013-02-12 21:27:00,
2013-02-12 16:32:00,38.8,28.7,29.35,ENE,68,0.0,0.0,67,0.00,,,0.00,WUHU216HW,2013-02-12 21:32:00,
2013-02-12 16:37:00,38.6,28.5,29.34,ESE,113,0.0,0.0,67,0.00,,,0.00,WUHU216HW,2013-02-12 21:37:00,
2013-02-12 16:42:00,38.3,28.2,29.34,SE,135,0.0,0.0,67,0.00,,,0.00,WUHU216HW,2013-02-12 21:42:00,
2013-02-12 16:47:00,38.1,28.4,29.33,SSE,158,0.0,0.0,68,0.00,,,0.00,WUHU216HW,2013-02-12 21:47:00,
2013-02-12 16:52:00,37.9,28.3,29.33,SE,135,0.0,0.0,68,0.00,,,0.00,WUHU216HW,2013-02-12 21:52:00,
2013-02-12 16:58:00,37.9,28.3,29.32,SE,135,0.0,0.0,68,0.00,,,0.00,WUHU216HW,2013-02-12 21:58:00,
2013-02-12 17:03:00,37.7,28.1,29.32,ESE,113,0.0,0.0,68,0.00,,,0.00,WUHU216HW,2013-02-12 22:03:00,
2013-02-12 17:08:00,37.7,28.1,29.33,ENE,68,0.0,0.0,68,0.00,,,0.00,WUHU216HW,2013-02-12 22:08:00,
2013-02-12 17:13:00,37.5,27.9,29.35,ENE,68,0.0,0.0,68,0.00,,,0.00,WUHU216HW,2013-02-12 22:13:00,
2013-02-12 17:18:00,37.4,27.6,29.35,ESE,113,0.0,0.0,68,0.00,,,0.00,WUHU216HW,2013-02-12 22:18:00,
2013-02-12 17:23:00,37.2,28.0,29.35,ENE,68,0.0,0.0,69,0.00,,,0.00,WUHU216HW,2013-02-12 22:23:00,
2013-02-12 17:28:00,37.2,28.0,29.36,NE,45,0.0,0.0,69,0.00,,,0.00,WUHU216HW,2013-02-12 22:28:00,
2013-02-12 17:33:00,37.0,27.8,29.36,ENE,68,0.0,0.0,69,0.00,,,0.00,WUHU216HW,2013-02-12 22:33:00,
2013-02-12 17:38:00,37.0,28.2,29.37,NNE,23,0.0,0.0,70,0.00,,,0.00,WUHU216HW,2013-02-12 22:38:00,
2013-02-12 17:43:00,36.8,28.0,29.37,ENE,68,0.0,0.0,70,0.00,,,0.00,WUHU216HW,2013-02-12 22:43:00,
2013-02-12 17:48:00,36.6,27.8,29.38,ENE,68,0.0,0.0,70,0.00,,,0.00,WUHU216HW,2013-02-12 22:48:00,
2013-02-12 17:53:00,36.6,27.8,29.38,ENE,68,0.0,0.0,70,0.00,,,0.00,WUHU216HW,2013-02-12 22:53:00,
2013-02-12 17:58:00,36.6,27.8,29.38,ENE,68,0.0,0.0,70,0.00,,,0.00,WUHU216HW,2013-02-12 22:58:00,
2013-02-12 18:03:00,36.5,27.6,29.39,ENE,68,0.0,0.0,70,0.00,,,0.00,WUHU216HW,2013-02-12 23:03:00,
2013-02-12 18:08:00,36.5,27.6,29.41,ENE,68,0.0,0.0,70,0.00,,,0.00,WUHU216HW,2013-02-12 23:08:00,
2013-02-12 18:13:00,36.5,27.6,29.41,ENE,68,0.0,0.0,70,0.00,,,0.00,WUHU216HW,2013-02-12 23:13:00,
2013-02-12 18:18:00,36.5,27.6,29.42,ENE,68,0.0,0.0,70,0.00,,,0.00,WUHU216HW,2013-02-12 23:18:00,
2013-02-12 18:23:00,36.5,27.6,29.43,NE,45,0.0,0.0,70,0.00,,,0.00,WUHU216HW,2013-02-12 23:23:00,
2013-02-12 18:28:00,36.5,27.6,29.43,ENE,68,0.0,0.0,70,0.00,,,0.00,WUHU216HW,2013-02-12 23:28:00,
2013-02-12 18:33:00,36.5,27.6,29.44,NNE,23,0.0,0.0,70,0.00,,,0.00,WUHU216HW,2013-02-12 23:33:00,
2013-02-12 18:39:00,36.5,27.6,29.45,NE,45,0.0,0.0,70,0.00,,,0.00,WUHU216HW,2013-02-12 23:39:00,
2013-02-12 18:44:00,36.5,27.6,29.45,NE,45,0.0,0.0,70,0.00,,,0.00,WUHU216HW,2013-02-12 23:44:00,
2013-02-12 18:49:00,36.5,27.6,29.46,ENE,68,0.0,0.0,70,0.00,,,0.00,WUHU216HW,2013-02-12 23:49:00,
2013-02-12 18:54:00,36.5,27.6,29.45,NE,45,0.0,0.0,70,0.00,,,0.00,WUHU216HW,2013-02-12 23:54:00,
2013-02-12 18:59:00,36.5,27.6,29.45,ENE,68,0.0,0.0,70,0.00,,,0.00,WUHU216HW,2013-02-12 23:59:00,
2013-02-12 19:04:00,36.5,27.6,29.46,ESE,113,0.0,0.0,70,0.00,,,0.00,WUHU216HW,2013-02-13 00:04:00,
2013-02-12 19:09:00,36.5,27.6,29.46,NNE,23,0.0,0.0,70,0.00,,,0.00,WUHU216HW,2013-02-13 00:09:00,
2013-02-12 19:14:00,36.5,27.6,29.45,SE,135,0.0,0.0,70,0.00,,,0.00,WUHU216HW,2013-02-13 00:14:00,
2013-02-12 19:19:00,36.5,27.6,29.44,ENE,68,0.0,0.0,70,0.00,,,0.00,WUHU216HW,2013-02-13 00:19:00,
2013-02-12 19:24:00,36.5,27.6,29.44,SE,135,0.0,0.0,70,0.00,,,0.00,WUHU216HW,2013-02-13 00:24:00,
2013-02-12 19:29:00,36.5,27.3,29.44,ENE,68,0.0,0.0,69,0.00,,,0.00,WUHU216HW,2013-02-13 00:29:00,
2013-02-12 19:34:00,36.5,27.3,29.45,ENE,68,0.0,0.0,69,0.00,,,0.00,WUHU216HW,2013-02-13 00:34:00,
2013-02-12 19:39:00,36.5,27.6,29.45,ESE,113,0.0,0.0,70,0.00,,,0.00,WUHU216HW,2013-02-13 00:39:00,
2013-02-12 19:44:00,36.3,27.1,29.45,ESE,113,0.0,0.0,69,0.00,,,0.00,WUHU216HW,2013-02-13 00:44:00,
2013-02-12 19:49:00,36.3,27.1,29.45,ENE,68,0.0,0.0,69,0.00,,,0.00,WUHU216HW,2013-02-13 00:49:00,
2013-02-12 19:54:00,36.3,27.1,29.45,ENE,68,0.0,0.0,69,0.00,,,0.00,WUHU216HW,2013-02-13 00:54:00,
2013-02-12 19:59:00,36.3,27.1,29.44,ESE,113,0.0,0.0,69,0.00,,,0.00,WUHU216HW,2013-02-13 00:59:00,
2013-02-12 20:05:00,36.3,27.1,29.44,SE,135,0.0,0.0,69,0.00,,,0.00,WUHU216HW,2013-02-13 01:05:00,
2013-02-12 20:10:00,36.3,27.1,29.44,ESE,113,0.0,0.0,69,0.00,,,0.00,WUHU216HW,2013-02-13 01:10:00,
2013-02-12 20:15:00,36.3,27.1,29.44,East,90,0.0,0.0,69,0.00,,,0.00,WUHU216HW,2013-02-13 01:15:00,
2013-02-12 20:20:00,36.3,27.1,29.43,ENE,68,0.0,0.0,69,0.00,,,0.00,WUHU216HW,2013-02-13 01:20:00,
2013-02-12 20:25:00,36.3,27.1,29.43,SE,135,0.0,0.0,69,0.00,,,0.00,WUHU216HW,2013-02-13 01:25:00,
2013-02-12 20:30:00,36.3,27.1,29.43,SE,135,0.0,0.0,69,0.00,,,0.00,WUHU216HW,2013-02-13 01:30:00,
2013-02-12 20:35:00,36.3,27.1,29.43,ENE,68,0.0,0.0,69,0.00,,,0.00,WUHU216HW,2013-02-13 01:35:00,
2013-02-12 20:40:00,36.3,27.1,29.43,ENE,68,0.0,0.0,69,0.00,,,0.00,WUHU216HW,2013-02-13 01:40:00,
2013-02-12 20:45:00,36.3,27.1,29.43,ENE,68,0.0,0.0,69,0.00,,,0.00,WUHU216HW,2013-02-13 01:45:00,
2013-02-12 20:50:00,36.3,27.5,29.44,ENE,68,0.0,0.0,70,0.00,,,0.00,WUHU216HW,2013-02-13 01:50:00,
2013-02-12 20:55:00,36.3,27.5,29.44,ENE,68,0.0,0.0,70,0.00,,,0.00,WUHU216HW,2013-02-13 01:55:00,
2013-02-12 21:00:00,36.1,27.3,29.44,ENE,68,0.0,0.0,70,0.00,,,0.00,WUHU216HW,2013-02-13 02:00:00,
2013-02-12 21:05:00,36.1,27.3,29.43,ENE,68,0.0,0.0,70,0.00,,,0.00,WUHU216HW,2013-02-13 02:05:00,
2013-02-12 21:10:00,35.9,27.4,29.43,ENE,68,0.0,0.0,71,0.00,,,0.00,WUHU216HW,2013-02-13 02:10:00,
2013-02-12 21:15:00,35.9,27.4,29.42,ENE,68,0.0,0.0,71,0.00,,,0.00,WUHU216HW,2013-02-13 02:15:00,
2013-02-12 21:20:00,35.7,27.6,29.43,ENE,68,0.0,0.0,72,0.00,,,0.00,WUHU216HW,2013-02-13 02:20:00,
2013-02-12 21:25:00,35.7,27.6,29.42,ENE,68,0.0,0.0,72,0.00,,,0.00,WUHU216HW,2013-02-13 02:25:00,
2013-02-12 21:30:00,35.7,27.6,29.42,ENE,68,0.0,0.0,72,0.00,,,0.00,WUHU216HW,2013-02-13 02:30:00,
2013-02-12 21:35:00,35.7,27.9,29.42,ENE,68,0.0,0.0,73,0.00,,,0.00,WUHU216HW,2013-02-13 02:35:00,
2013-02-12 21:40:00,35.4,27.5,29.42,ENE,68,0.0,0.0,73,0.00,,,0.00,WUHU216HW,2013-02-13 02:40:00,
2013-02-12 21:45:00,35.4,27.5,29.41,ENE,68,0.0,0.0,73,0.00,,,0.00,WUHU216HW,2013-02-13 02:45:00,
2013-02-12 21:50:00,35.4,27.5,29.41,ENE,68,0.0,0.0,73,0.00,,,0.00,WUHU216HW,2013-02-13 02:50:00,
2013-02-12 21:55:00,35.4,27.5,29.41,ENE,68,0.0,0.0,73,0.00,,,0.00,WUHU216HW,2013-02-13 02:55:00,
2013-02-12 22:00:00,35.4,27.5,29.41,ENE,68,0.0,0.0,73,0.00,,,0.00,WUHU216HW,2013-02-13 03:00:00,
2013-02-12 22:05:00,35.2,27.7,29.41,ENE,68,0.0,0.0,74,0.00,,,0.00,WUHU216HW,2013-02-13 03:05:00,
2013-02-12 22:10:00,35.2,27.7,29.41,ENE,68,0.0,0.0,74,0.00,,,0.00,WUHU216HW,2013-02-13 03:10:00,
2013-02-12 22:15:00,35.2,27.7,29.41,ENE,68,0.0,0.0,74,0.00,,,0.00,WUHU216HW,2013-02-13 03:15:00,
2013-02-12 22:21:00,35.2,27.7,29.41,ENE,68,0.0,0.0,75,0.00,,,0.00,WUHU216HW,2013-02-13 03:21:00,
2013-02-12 22:26:00,35.0,27.8,29.41,South,180,0.0,0.0,75,0.00,,,0.00,WUHU216HW,2013-02-13 03:26:00,
2013-02-12 22:31:00,34.8,27.6,29.41,ESE,113,0.0,0.0,75,0.00,,,0.00,WUHU216HW,2013-02-13 03:31:00,
2013-02-12 22:36:00,34.8,27.6,29.41,ESE,113,0.0,0.0,75,0.00,,,0.00,WUHU216HW,2013-02-13 03:36:00,
2013-02-12 22:41:00,34.8,27.6,29.41,ESE,113,0.0,0.0,75,0.00,,,0.00,WUHU216HW,2013-02-13 03:41:00,
2013-02-12 22:46:00,34.8,27.6,29.41,ESE,113,0.0,0.0,75,0.00,,,0.00,WUHU216HW,2013-02-13 03:46:00,
2013-02-12 22:51:00,34.8,27.6,29.41,ESE,113,0.0,0.0,75,0.00,,,0.00,WUHU216HW,2013-02-13 03:51:00,
2013-02-12 22:56:00,34.8,27.6,29.41,ESE,113,0.0,0.0,75,0.00,,,0.00,WUHU216HW,2013-02-13 03:56:00,
2013-02-12 23:01:00,34.8,27.6,29.41,ESE,113,0.0,0.0,75,0.00,,,0.00,WUHU216HW,2013-02-13 04:01:00,
2013-02-12 23:06:00,34.7,27.5,29.41,ESE,113,0.0,0.0,75,0.00,,,0.00,WUHU216HW,2013-02-13 04:06:00,
2013-02-12 23:11:00,34.7,27.8,29.41,ESE,113,0.0,0.0,76,0.00,,,0.00,WUHU216HW,2013-02-13 04:11:00,
2013-02-12 23:16:00,34.7,27.5,29.41,ESE,113,0.0,0.0,75,0.00,,,0.00,WUHU216HW,2013-02-13 04:16:00,
2013-02-12 23:21:00,34.7,27.5,29.42,ESE,113,0.0,0.0,75,0.00,,,0.00,WUHU216HW,2013-02-13 04:21:00,
2013-02-12 23:26:00,34.7,27.5,29.41,ESE,113,0.0,0.0,75,0.00,,,0.00,WUHU216HW,2013-02-13 04:26:00,
2013-02-12 23:31:00,34.5,27.6,29.41,ESE,113,0.0,0.0,76,0.00,,,0.00,WUHU216HW,2013-02-13 04:31:00,
2013-02-12 23:37:00,34.5,27.6,29.41,ESE,113,0.0,0.0,76,0.00,,,0.00,WUHU216HW,2013-02-13 04:37:00,
2013-02-12 23:42:00,34.3,27.4,29.42,SE,135,0.0,0.0,76,0.00,,,0.00,WUHU216HW,2013-02-13 04:42:00,
2013-02-12 23:47:00,34.3,27.4,29.42,ESE,113,0.0,0.0,76,0.00,,,0.00,WUHU216HW,2013-02-13 04:47:00,
2013-02-12 23:52:00,34.3,27.1,29.41,SSE,158,0.0,0.0,75,0.00,,,0.00,WUHU216HW,2013-02-13 04:52:00,
2013-02-12 23:57:00,34.3,26.8,29.41,SSE,158,0.0,0.0,74,0.00,,,0.00,WUHU216HW,2013-02-13 04:57:00,